sensor_id;sensor_type;location;lat;lon;timestamp;P1;durP1;ratioP1;P2;durP2;ratioP2
64959;SDS011;51487;52.266;10.542;2023-07-22T00:02:23;3.60;;;2.88;;
64959;SDS011;51487;52.266;10.542;2023-07-22T00:04:49;6.85;;;3.42;;
64959;SDS011;51487;52.266;10.542;2023-07-22T00:07:15;5.15;;;3.60;;
64959;SDS011;51487;52.266;10.542;2023-07-22T00:09:41;4.93;;;3.30;;
64959;SDS011;51487;52.266;10.542;2023-07-22T00:12:08;4.85;;;2.85;;
64959;SDS011;51487;52.266;10.542;2023-07-22T00:14:38;6.05;;;3.00;;
64959;SDS011;51487;52.266;10.542;2023-07-22T00:17:06;4.57;;;3.05;;
64959;SDS011;51487;52.266;10.542;2023-07-22T00:19:32;4.78;;;3.20;;
64959;SDS011;51487;52.266;10.542;2023-07-22T00:21:58;4.68;;;3.58;;
64959;SDS011;51487;52.266;10.542;2023-07-22T00:24:24;6.05;;;3.47;;
64959;SDS011;51487;52.266;10.542;2023-07-22T00:26:50;4.88;;;3.80;;
64959;SDS011;51487;52.266;10.542;2023-07-22T00:29:16;5.35;;;3.88;;
64959;SDS011;51487;52.266;10.542;2023-07-22T00:31:42;7.07;;;3.83;;
64959;SDS011;51487;52.266;10.542;2023-07-22T00:34:07;5.57;;;3.85;;
64959;SDS011;51487;52.266;10.542;2023-07-22T00:36:34;5.75;;;3.72;;
64959;SDS011;51487;52.266;10.542;2023-07-22T00:38:59;4.90;;;3.88;;
64959;SDS011;51487;52.266;10.542;2023-07-22T00:41:26;6.22;;;4.18;;
64959;SDS011;51487;52.266;10.542;2023-07-22T00:43:54;5.60;;;4.00;;
64959;SDS011;51487;52.266;10.542;2023-07-22T00:46:19;6.85;;;4.53;;
64959;SDS011;51487;52.266;10.542;2023-07-22T00:48:45;6.95;;;4.28;;
64959;SDS011;51487;52.266;10.542;2023-07-22T00:51:12;4.90;;;3.83;;
64959;SDS011;51487;52.266;10.542;2023-07-22T00:53:37;7.07;;;4.47;;
64959;SDS011;51487;52.266;10.542;2023-07-22T00:56:04;8.32;;;4.78;;
64959;SDS011;51487;52.266;10.542;2023-07-22T00:58:29;7.03;;;4.18;;
64959;SDS011;51487;52.266;10.542;2023-07-22T01:00:55;8.55;;;4.72;;
64959;SDS011;51487;52.266;10.542;2023-07-22T01:03:21;6.57;;;4.82;;
64959;SDS011;51487;52.266;10.542;2023-07-22T01:05:47;8.23;;;5.05;;
64959;SDS011;51487;52.266;10.542;2023-07-22T01:08:14;7.43;;;5.03;;
64959;SDS011;51487;52.266;10.542;2023-07-22T01:10:40;7.50;;;4.88;;
64959;SDS011;51487;52.266;10.542;2023-07-22T01:13:05;22.40;;;6.47;;
64959;SDS011;51487;52.266;10.542;2023-07-22T01:15:31;9.13;;;5.38;;
64959;SDS011;51487;52.266;10.542;2023-07-22T01:17:57;8.32;;;5.03;;
64959;SDS011;51487;52.266;10.542;2023-07-22T01:20:27;6.82;;;5.00;;
64959;SDS011;51487;52.266;10.542;2023-07-22T01:22:54;9.15;;;5.20;;
64959;SDS011;51487;52.266;10.542;2023-07-22T01:25:21;8.25;;;5.20;;
64959;SDS011;51487;52.266;10.542;2023-07-22T01:27:48;6.30;;;4.65;;
64959;SDS011;51487;52.266;10.542;2023-07-22T01:30:15;7.32;;;4.90;;
64959;SDS011;51487;52.266;10.542;2023-07-22T01:32:41;7.93;;;5.03;;
64959;SDS011;51487;52.266;10.542;2023-07-22T01:35:07;7.72;;;5.40;;
64959;SDS011;51487;52.266;10.542;2023-07-22T01:37:33;7.65;;;5.65;;
64959;SDS011;51487;52.266;10.542;2023-07-22T01:40:00;7.03;;;5.00;;
64959;SDS011;51487;52.266;10.542;2023-07-22T01:42:36;10.18;;;5.85;;
64959;SDS011;51487;52.266;10.542;2023-07-22T01:45:01;7.05;;;5.55;;
64959;SDS011;51487;52.266;10.542;2023-07-22T01:47:27;9.05;;;5.88;;
64959;SDS011;51487;52.266;10.542;2023-07-22T01:49:53;7.55;;;5.40;;
64959;SDS011;51487;52.266;10.542;2023-07-22T01:52:18;7.70;;;5.43;;
64959;SDS011;51487;52.266;10.542;2023-07-22T01:54:44;8.40;;;6.07;;
64959;SDS011;51487;52.266;10.542;2023-07-22T01:57:09;9.57;;;5.70;;
64959;SDS011;51487;52.266;10.542;2023-07-22T01:59:35;8.88;;;5.82;;
64959;SDS011;51487;52.266;10.542;2023-07-22T02:02:00;9.57;;;6.20;;
64959;SDS011;51487;52.266;10.542;2023-07-22T02:04:26;7.68;;;5.53;;
64959;SDS011;51487;52.266;10.542;2023-07-22T02:06:52;9.75;;;5.15;;
64959;SDS011;51487;52.266;10.542;2023-07-22T02:09:18;7.07;;;5.70;;
64959;SDS011;51487;52.266;10.542;2023-07-22T02:11:44;8.23;;;5.80;;
64959;SDS011;51487;52.266;10.542;2023-07-22T02:14:09;8.70;;;5.97;;
64959;SDS011;51487;52.266;10.542;2023-07-22T02:16:35;8.95;;;6.85;;
64959;SDS011;51487;52.266;10.542;2023-07-22T02:19:02;10.00;;;7.00;;
64959;SDS011;51487;52.266;10.542;2023-07-22T02:21:28;9.10;;;6.43;;
64959;SDS011;51487;52.266;10.542;2023-07-22T02:23:54;7.80;;;5.80;;
64959;SDS011;51487;52.266;10.542;2023-07-22T02:26:20;9.32;;;6.07;;
64959;SDS011;51487;52.266;10.542;2023-07-22T02:28:46;10.82;;;6.55;;
64959;SDS011;51487;52.266;10.542;2023-07-22T02:31:12;7.50;;;5.97;;
64959;SDS011;51487;52.266;10.542;2023-07-22T02:33:37;8.85;;;6.32;;
64959;SDS011;51487;52.266;10.542;2023-07-22T02:36:03;7.18;;;5.53;;
64959;SDS011;51487;52.266;10.542;2023-07-22T02:38:29;10.45;;;6.32;;
64959;SDS011;51487;52.266;10.542;2023-07-22T02:40:54;8.75;;;6.15;;
64959;SDS011;51487;52.266;10.542;2023-07-22T02:43:26;7.68;;;5.95;;
64959;SDS011;51487;52.266;10.542;2023-07-22T02:45:52;9.52;;;6.15;;
64959;SDS011;51487;52.266;10.542;2023-07-22T02:48:18;10.02;;;5.70;;
64959;SDS011;51487;52.266;10.542;2023-07-22T02:50:44;12.30;;;6.10;;
64959;SDS011;51487;52.266;10.542;2023-07-22T02:53:09;8.75;;;5.97;;
64959;SDS011;51487;52.266;10.542;2023-07-22T02:55:35;10.70;;;5.82;;
64959;SDS011;51487;52.266;10.542;2023-07-22T02:58:00;8.50;;;6.00;;
64959;SDS011;51487;52.266;10.542;2023-07-22T03:00:26;7.20;;;5.60;;
64959;SDS011;51487;52.266;10.542;2023-07-22T03:02:53;8.70;;;6.40;;
64959;SDS011;51487;52.266;10.542;2023-07-22T03:05:25;8.30;;;5.82;;
64959;SDS011;51487;52.266;10.542;2023-07-22T03:07:55;10.30;;;6.47;;
64959;SDS011;51487;52.266;10.542;2023-07-22T03:10:22;8.82;;;6.03;;
64959;SDS011;51487;52.266;10.542;2023-07-22T03:12:50;10.35;;;6.20;;
64959;SDS011;51487;52.266;10.542;2023-07-22T03:15:20;10.38;;;5.35;;
64959;SDS011;51487;52.266;10.542;2023-07-22T03:17:51;7.97;;;5.35;;
64959;SDS011;51487;52.266;10.542;2023-07-22T03:20:17;9.05;;;5.78;;
64959;SDS011;51487;52.266;10.542;2023-07-22T03:22:45;8.52;;;5.47;;
64959;SDS011;51487;52.266;10.542;2023-07-22T03:25:12;9.18;;;5.50;;
64959;SDS011;51487;52.266;10.542;2023-07-22T03:27:39;8.80;;;5.32;;
64959;SDS011;51487;52.266;10.542;2023-07-22T03:30:05;9.18;;;5.38;;
64959;SDS011;51487;52.266;10.542;2023-07-22T03:32:35;8.50;;;5.32;;
64959;SDS011;51487;52.266;10.542;2023-07-22T03:35:01;9.68;;;4.78;;
64959;SDS011;51487;52.266;10.542;2023-07-22T03:37:28;8.63;;;5.30;;
64959;SDS011;51487;52.266;10.542;2023-07-22T03:39:54;7.30;;;4.80;;
64959;SDS011;51487;52.266;10.542;2023-07-22T03:42:20;7.43;;;5.45;;
64959;SDS011;51487;52.266;10.542;2023-07-22T03:44:46;8.25;;;4.30;;
64959;SDS011;51487;52.266;10.542;2023-07-22T03:47:11;7.70;;;5.07;;
64959;SDS011;51487;52.266;10.542;2023-07-22T03:49:37;8.25;;;5.40;;
64959;SDS011;51487;52.266;10.542;2023-07-22T03:52:03;9.90;;;5.30;;
64959;SDS011;51487;52.266;10.542;2023-07-22T03:54:29;8.43;;;5.07;;
64959;SDS011;51487;52.266;10.542;2023-07-22T03:56:56;6.85;;;4.78;;
64959;SDS011;51487;52.266;10.542;2023-07-22T03:59:22;10.55;;;4.38;;
64959;SDS011;51487;52.266;10.542;2023-07-22T04:01:48;7.55;;;4.45;;
64959;SDS011;51487;52.266;10.542;2023-07-22T04:04:14;7.28;;;4.72;;
64959;SDS011;51487;52.266;10.542;2023-07-22T04:06:39;9.63;;;5.15;;
64959;SDS011;51487;52.266;10.542;2023-07-22T04:09:05;8.05;;;4.88;;
64959;SDS011;51487;52.266;10.542;2023-07-22T04:11:30;8.30;;;5.15;;
64959;SDS011;51487;52.266;10.542;2023-07-22T04:13:56;9.07;;;5.47;;
64959;SDS011;51487;52.266;10.542;2023-07-22T04:16:22;8.32;;;5.13;;
64959;SDS011;51487;52.266;10.542;2023-07-22T04:18:47;8.25;;;4.68;;
64959;SDS011;51487;52.266;10.542;2023-07-22T04:21:13;7.93;;;4.90;;
64959;SDS011;51487;52.266;10.542;2023-07-22T04:23:38;8.07;;;4.88;;
64959;SDS011;51487;52.266;10.542;2023-07-22T04:26:04;5.93;;;4.38;;
64959;SDS011;51487;52.266;10.542;2023-07-22T04:28:30;7.88;;;5.10;;
64959;SDS011;51487;52.266;10.542;2023-07-22T04:30:56;6.00;;;4.78;;
64959;SDS011;51487;52.266;10.542;2023-07-22T04:33:25;7.47;;;4.70;;
64959;SDS011;51487;52.266;10.542;2023-07-22T04:35:53;6.68;;;4.38;;
64959;SDS011;51487;52.266;10.542;2023-07-22T04:38:22;8.40;;;4.63;;
64959;SDS011;51487;52.266;10.542;2023-07-22T04:40:48;7.28;;;4.63;;
64959;SDS011;51487;52.266;10.542;2023-07-22T04:43:13;6.53;;;4.50;;
64959;SDS011;51487;52.266;10.542;2023-07-22T04:45:39;8.43;;;4.82;;
64959;SDS011;51487;52.266;10.542;2023-07-22T04:48:05;7.13;;;4.60;;
64959;SDS011;51487;52.266;10.542;2023-07-22T04:50:31;8.05;;;4.65;;
64959;SDS011;51487;52.266;10.542;2023-07-22T04:52:57;8.68;;;5.30;;
64959;SDS011;51487;52.266;10.542;2023-07-22T04:55:23;9.13;;;4.90;;
64959;SDS011;51487;52.266;10.542;2023-07-22T04:57:48;6.88;;;4.85;;
64959;SDS011;51487;52.266;10.542;2023-07-22T05:00:16;7.35;;;4.45;;
64959;SDS011;51487;52.266;10.542;2023-07-22T05:02:44;7.55;;;4.95;;
64959;SDS011;51487;52.266;10.542;2023-07-22T05:05:14;8.48;;;4.53;;
64959;SDS011;51487;52.266;10.542;2023-07-22T05:07:41;7.75;;;4.50;;
64959;SDS011;51487;52.266;10.542;2023-07-22T05:10:07;7.20;;;4.95;;
64959;SDS011;51487;52.266;10.542;2023-07-22T05:12:40;6.30;;;4.65;;
64959;SDS011;51487;52.266;10.542;2023-07-22T05:15:07;9.00;;;4.45;;
64959;SDS011;51487;52.266;10.542;2023-07-22T05:17:35;8.48;;;4.63;;
64959;SDS011;51487;52.266;10.542;2023-07-22T05:20:01;6.63;;;4.32;;
64959;SDS011;51487;52.266;10.542;2023-07-22T05:22:26;10.32;;;4.75;;
64959;SDS011;51487;52.266;10.542;2023-07-22T05:24:52;7.57;;;4.60;;
64959;SDS011;51487;52.266;10.542;2023-07-22T05:27:17;7.20;;;4.40;;
64959;SDS011;51487;52.266;10.542;2023-07-22T05:29:43;8.90;;;5.00;;
64959;SDS011;51487;52.266;10.542;2023-07-22T05:32:10;7.65;;;4.55;;
64959;SDS011;51487;52.266;10.542;2023-07-22T05:34:36;9.75;;;4.63;;
64959;SDS011;51487;52.266;10.542;2023-07-22T05:37:01;10.05;;;4.68;;
64959;SDS011;51487;52.266;10.542;2023-07-22T05:39:27;7.30;;;4.60;;
64959;SDS011;51487;52.266;10.542;2023-07-22T05:41:53;6.13;;;4.65;;
64959;SDS011;51487;52.266;10.542;2023-07-22T05:44:18;6.88;;;4.40;;
64959;SDS011;51487;52.266;10.542;2023-07-22T05:46:44;7.72;;;5.07;;
64959;SDS011;51487;52.266;10.542;2023-07-22T05:49:09;8.93;;;4.40;;
64959;SDS011;51487;52.266;10.542;2023-07-22T05:51:38;7.60;;;5.05;;
64959;SDS011;51487;52.266;10.542;2023-07-22T05:54:03;8.32;;;4.90;;
64959;SDS011;51487;52.266;10.542;2023-07-22T05:56:29;7.30;;;4.60;;
64959;SDS011;51487;52.266;10.542;2023-07-22T05:58:55;6.05;;;4.60;;
64959;SDS011;51487;52.266;10.542;2023-07-22T06:01:21;7.93;;;4.53;;
64959;SDS011;51487;52.266;10.542;2023-07-22T06:03:47;7.50;;;4.57;;
64959;SDS011;51487;52.266;10.542;2023-07-22T06:06:12;12.88;;;5.30;;
64959;SDS011;51487;52.266;10.542;2023-07-22T06:08:38;8.00;;;4.75;;
64959;SDS011;51487;52.266;10.542;2023-07-22T06:11:04;6.63;;;4.20;;
64959;SDS011;51487;52.266;10.542;2023-07-22T06:13:32;9.10;;;5.13;;
64959;SDS011;51487;52.266;10.542;2023-07-22T06:15:57;6.63;;;4.63;;
64959;SDS011;51487;52.266;10.542;2023-07-22T06:18:26;9.20;;;4.72;;
64959;SDS011;51487;52.266;10.542;2023-07-22T06:20:51;7.85;;;4.80;;
64959;SDS011;51487;52.266;10.542;2023-07-22T06:23:17;8.43;;;4.55;;
64959;SDS011;51487;52.266;10.542;2023-07-22T06:25:43;7.90;;;5.05;;
64959;SDS011;51487;52.266;10.542;2023-07-22T06:28:08;8.00;;;4.80;;
64959;SDS011;51487;52.266;10.542;2023-07-22T06:30:34;8.95;;;5.00;;
64959;SDS011;51487;52.266;10.542;2023-07-22T06:33:00;10.20;;;4.90;;
64959;SDS011;51487;52.266;10.542;2023-07-22T06:35:25;6.38;;;4.38;;
64959;SDS011;51487;52.266;10.542;2023-07-22T06:37:51;7.28;;;4.68;;
64959;SDS011;51487;52.266;10.542;2023-07-22T06:40:17;9.68;;;5.47;;
64959;SDS011;51487;52.266;10.542;2023-07-22T06:42:43;7.75;;;5.10;;
64959;SDS011;51487;52.266;10.542;2023-07-22T06:45:09;6.68;;;4.55;;
64959;SDS011;51487;52.266;10.542;2023-07-22T06:47:35;8.60;;;4.70;;
64959;SDS011;51487;52.266;10.542;2023-07-22T06:50:01;7.68;;;4.63;;
64959;SDS011;51487;52.266;10.542;2023-07-22T06:52:31;9.95;;;5.18;;
64959;SDS011;51487;52.266;10.542;2023-07-22T06:54:57;7.60;;;4.90;;
64959;SDS011;51487;52.266;10.542;2023-07-22T06:57:23;7.85;;;5.38;;
64959;SDS011;51487;52.266;10.542;2023-07-22T06:59:51;9.27;;;5.20;;
64959;SDS011;51487;52.266;10.542;2023-07-22T07:02:18;7.35;;;5.15;;
64959;SDS011;51487;52.266;10.542;2023-07-22T07:04:44;7.60;;;5.00;;
64959;SDS011;51487;52.266;10.542;2023-07-22T07:07:10;7.63;;;5.07;;
64959;SDS011;51487;52.266;10.542;2023-07-22T07:09:38;12.48;;;7.15;;
64959;SDS011;51487;52.266;10.542;2023-07-22T07:12:04;7.35;;;5.32;;
64959;SDS011;51487;52.266;10.542;2023-07-22T07:14:30;9.52;;;4.95;;
64959;SDS011;51487;52.266;10.542;2023-07-22T07:16:57;8.90;;;5.63;;
64959;SDS011;51487;52.266;10.542;2023-07-22T07:19:23;8.23;;;5.00;;
64959;SDS011;51487;52.266;10.542;2023-07-22T07:21:48;6.20;;;4.55;;
64959;SDS011;51487;52.266;10.542;2023-07-22T07:24:14;8.18;;;5.28;;
64959;SDS011;51487;52.266;10.542;2023-07-22T07:26:41;8.40;;;4.75;;
64959;SDS011;51487;52.266;10.542;2023-07-22T07:29:06;7.35;;;4.78;;
64959;SDS011;51487;52.266;10.542;2023-07-22T07:31:32;7.28;;;4.80;;
64959;SDS011;51487;52.266;10.542;2023-07-22T07:33:58;6.10;;;4.40;;
64959;SDS011;51487;52.266;10.542;2023-07-22T07:36:23;9.20;;;5.03;;
64959;SDS011;51487;52.266;10.542;2023-07-22T07:38:49;5.80;;;4.47;;
64959;SDS011;51487;52.266;10.542;2023-07-22T07:41:14;8.68;;;4.80;;
64959;SDS011;51487;52.266;10.542;2023-07-22T07:43:40;6.88;;;4.57;;
64959;SDS011;51487;52.266;10.542;2023-07-22T07:48:56;7.03;;;4.72;;
64959;SDS011;51487;52.266;10.542;2023-07-22T07:53:56;7.65;;;5.05;;
64959;SDS011;51487;52.266;10.542;2023-07-22T07:56:29;9.32;;;4.90;;
64959;SDS011;51487;52.266;10.542;2023-07-22T07:58:54;7.20;;;4.90;;
64959;SDS011;51487;52.266;10.542;2023-07-22T08:01:20;11.10;;;4.50;;
64959;SDS011;51487;52.266;10.542;2023-07-22T08:03:46;7.22;;;4.85;;
64959;SDS011;51487;52.266;10.542;2023-07-22T08:06:12;6.82;;;4.47;;
64959;SDS011;51487;52.266;10.542;2023-07-22T08:08:38;7.50;;;4.97;;
64959;SDS011;51487;52.266;10.542;2023-07-22T08:11:06;5.93;;;4.63;;
64959;SDS011;51487;52.266;10.542;2023-07-22T08:13:34;7.30;;;5.13;;
64959;SDS011;51487;52.266;10.542;2023-07-22T08:16:02;8.40;;;4.90;;
64959;SDS011;51487;52.266;10.542;2023-07-22T08:18:33;8.55;;;4.53;;
64959;SDS011;51487;52.266;10.542;2023-07-22T08:21:01;8.25;;;4.57;;
64959;SDS011;51487;52.266;10.542;2023-07-22T08:23:29;6.47;;;4.28;;
64959;SDS011;51487;52.266;10.542;2023-07-22T08:25:55;6.40;;;4.90;;
64959;SDS011;51487;52.266;10.542;2023-07-22T08:28:20;7.28;;;4.65;;
64959;SDS011;51487;52.266;10.542;2023-07-22T08:30:47;6.00;;;4.53;;
64959;SDS011;51487;52.266;10.542;2023-07-22T08:33:14;8.52;;;4.80;;
64959;SDS011;51487;52.266;10.542;2023-07-22T08:35:41;7.50;;;4.20;;
64959;SDS011;51487;52.266;10.542;2023-07-22T08:38:07;6.90;;;4.50;;
64959;SDS011;51487;52.266;10.542;2023-07-22T08:40:34;7.75;;;4.63;;
64959;SDS011;51487;52.266;10.542;2023-07-22T08:43:05;7.43;;;4.50;;
64959;SDS011;51487;52.266;10.542;2023-07-22T08:45:35;7.50;;;4.45;;
64959;SDS011;51487;52.266;10.542;2023-07-22T08:48:04;8.30;;;4.68;;
64959;SDS011;51487;52.266;10.542;2023-07-22T08:50:44;7.63;;;4.55;;
64959;SDS011;51487;52.266;10.542;2023-07-22T08:53:20;6.10;;;3.90;;
64959;SDS011;51487;52.266;10.542;2023-07-22T08:55:48;7.53;;;4.43;;
64959;SDS011;51487;52.266;10.542;2023-07-22T08:58:15;5.57;;;4.55;;
64959;SDS011;51487;52.266;10.542;2023-07-22T09:00:42;6.40;;;4.43;;
64959;SDS011;51487;52.266;10.542;2023-07-22T09:03:08;6.43;;;4.38;;
64959;SDS011;51487;52.266;10.542;2023-07-22T09:05:36;6.50;;;4.45;;
64959;SDS011;51487;52.266;10.542;2023-07-22T09:08:04;5.85;;;4.00;;
64959;SDS011;51487;52.266;10.542;2023-07-22T09:10:32;9.13;;;4.65;;
64959;SDS011;51487;52.266;10.542;2023-07-22T09:13:00;6.65;;;4.60;;
64959;SDS011;51487;52.266;10.542;2023-07-22T09:15:26;7.32;;;5.30;;
64959;SDS011;51487;52.266;10.542;2023-07-22T09:17:53;8.63;;;5.72;;
64959;SDS011;51487;52.266;10.542;2023-07-22T09:20:19;8.32;;;5.82;;
64959;SDS011;51487;52.266;10.542;2023-07-22T09:22:50;7.43;;;5.50;;
64959;SDS011;51487;52.266;10.542;2023-07-22T09:25:23;8.88;;;5.97;;
64959;SDS011;51487;52.266;10.542;2023-07-22T09:27:53;8.63;;;5.60;;
64959;SDS011;51487;52.266;10.542;2023-07-22T09:30:32;10.38;;;6.40;;
64959;SDS011;51487;52.266;10.542;2023-07-22T09:33:05;7.18;;;5.82;;
64959;SDS011;51487;52.266;10.542;2023-07-22T09:35:45;8.60;;;5.53;;
64959;SDS011;51487;52.266;10.542;2023-07-22T09:38:13;7.72;;;5.78;;
64959;SDS011;51487;52.266;10.542;2023-07-22T09:40:42;7.28;;;5.57;;
64959;SDS011;51487;52.266;10.542;2023-07-22T09:43:11;7.35;;;5.43;;
64959;SDS011;51487;52.266;10.542;2023-07-22T09:45:39;9.40;;;6.03;;
64959;SDS011;51487;52.266;10.542;2023-07-22T09:48:05;11.50;;;6.05;;
64959;SDS011;51487;52.266;10.542;2023-07-22T09:50:31;11.05;;;6.72;;
64959;SDS011;51487;52.266;10.542;2023-07-22T09:52:57;7.72;;;6.55;;
64959;SDS011;51487;52.266;10.542;2023-07-22T09:55:25;7.43;;;6.32;;
64959;SDS011;51487;52.266;10.542;2023-07-22T09:57:58;8.82;;;6.15;;
64959;SDS011;51487;52.266;10.542;2023-07-22T10:00:30;9.15;;;6.68;;
64959;SDS011;51487;52.266;10.542;2023-07-22T10:02:59;9.90;;;6.47;;
64959;SDS011;51487;52.266;10.542;2023-07-22T10:05:26;8.65;;;6.00;;
64959;SDS011;51487;52.266;10.542;2023-07-22T10:07:57;7.53;;;5.82;;
64959;SDS011;51487;52.266;10.542;2023-07-22T10:10:31;7.78;;;6.45;;
64959;SDS011;51487;52.266;10.542;2023-07-22T10:13:02;7.85;;;5.93;;
64959;SDS011;51487;52.266;10.542;2023-07-22T10:15:30;8.05;;;5.80;;
64959;SDS011;51487;52.266;10.542;2023-07-22T10:17:59;9.10;;;6.65;;
64959;SDS011;51487;52.266;10.542;2023-07-22T10:20:27;10.70;;;5.60;;
64959;SDS011;51487;52.266;10.542;2023-07-22T10:22:55;9.07;;;5.68;;
64959;SDS011;51487;52.266;10.542;2023-07-22T10:25:21;7.53;;;5.20;;
64959;SDS011;51487;52.266;10.542;2023-07-22T10:27:48;9.98;;;6.07;;
64959;SDS011;51487;52.266;10.542;2023-07-22T10:30:17;8.93;;;4.70;;
64959;SDS011;51487;52.266;10.542;2023-07-22T10:32:47;7.53;;;4.82;;
64959;SDS011;51487;52.266;10.542;2023-07-22T10:37:56;7.82;;;4.55;;
64959;SDS011;51487;52.266;10.542;2023-07-22T10:40:44;5.47;;;4.10;;
64959;SDS011;51487;52.266;10.542;2023-07-22T10:43:16;6.47;;;4.43;;
64959;SDS011;51487;52.266;10.542;2023-07-22T10:45:53;6.85;;;4.35;;
64959;SDS011;51487;52.266;10.542;2023-07-22T10:48:22;9.43;;;4.50;;
64959;SDS011;51487;52.266;10.542;2023-07-22T10:50:53;8.60;;;4.32;;
64959;SDS011;51487;52.266;10.542;2023-07-22T11:06:58;6.60;;;4.38;;
64959;SDS011;51487;52.266;10.542;2023-07-22T11:14:27;6.82;;;4.20;;
64959;SDS011;51487;52.266;10.542;2023-07-22T11:17:05;5.25;;;3.80;;
64959;SDS011;51487;52.266;10.542;2023-07-22T11:19:33;4.93;;;3.70;;
64959;SDS011;51487;52.266;10.542;2023-07-22T11:21:59;6.70;;;3.42;;
64959;SDS011;51487;52.266;10.542;2023-07-22T11:24:26;5.00;;;3.80;;
64959;SDS011;51487;52.266;10.542;2023-07-22T11:26:52;5.60;;;3.53;;
64959;SDS011;51487;52.266;10.542;2023-07-22T11:29:18;5.45;;;3.90;;
64959;SDS011;51487;52.266;10.542;2023-07-22T11:31:45;4.18;;;3.28;;
64959;SDS011;51487;52.266;10.542;2023-07-22T11:34:14;5.38;;;3.63;;
64959;SDS011;51487;52.266;10.542;2023-07-22T11:36:42;4.07;;;3.17;;
64959;SDS011;51487;52.266;10.542;2023-07-22T11:39:09;4.03;;;3.28;;
64959;SDS011;51487;52.266;10.542;2023-07-22T11:41:38;4.07;;;3.35;;
64959;SDS011;51487;52.266;10.542;2023-07-22T11:44:08;7.68;;;3.30;;
64959;SDS011;51487;52.266;10.542;2023-07-22T11:54:35;4.05;;;3.15;;
64959;SDS011;51487;52.266;10.542;2023-07-22T11:57:23;4.07;;;2.97;;
64959;SDS011;51487;52.266;10.542;2023-07-22T11:59:52;4.35;;;3.28;;
64959;SDS011;51487;52.266;10.542;2023-07-22T12:02:21;4.47;;;3.07;;
64959;SDS011;51487;52.266;10.542;2023-07-22T12:04:53;4.55;;;3.45;;
64959;SDS011;51487;52.266;10.542;2023-07-22T12:07:24;4.50;;;3.47;;
64959;SDS011;51487;52.266;10.542;2023-07-22T12:09:53;7.75;;;3.50;;
64959;SDS011;51487;52.266;10.542;2023-07-22T12:12:20;4.53;;;3.10;;
64959;SDS011;51487;52.266;10.542;2023-07-22T12:14:46;5.18;;;3.50;;
64959;SDS011;51487;52.266;10.542;2023-07-22T12:17:12;4.88;;;3.80;;
64959;SDS011;51487;52.266;10.542;2023-07-22T12:19:37;5.38;;;3.75;;
64959;SDS011;51487;52.266;10.542;2023-07-22T12:22:03;4.75;;;3.35;;
64959;SDS011;51487;52.266;10.542;2023-07-22T12:24:29;5.07;;;3.72;;
64959;SDS011;51487;52.266;10.542;2023-07-22T12:26:55;6.03;;;3.60;;
64959;SDS011;51487;52.266;10.542;2023-07-22T12:29:20;7.53;;;3.40;;
64959;SDS011;51487;52.266;10.542;2023-07-22T12:31:47;4.43;;;3.63;;
64959;SDS011;51487;52.266;10.542;2023-07-22T12:34:13;5.93;;;3.78;;
64959;SDS011;51487;52.266;10.542;2023-07-22T12:36:39;4.03;;;3.42;;
64959;SDS011;51487;52.266;10.542;2023-07-22T12:39:06;8.60;;;3.65;;
64959;SDS011;51487;52.266;10.542;2023-07-22T12:41:31;4.47;;;3.60;;
64959;SDS011;51487;52.266;10.542;2023-07-22T12:43:57;4.80;;;3.60;;
64959;SDS011;51487;52.266;10.542;2023-07-22T12:46:23;5.40;;;3.50;;
64959;SDS011;51487;52.266;10.542;2023-07-22T12:48:48;4.70;;;3.47;;
64959;SDS011;51487;52.266;10.542;2023-07-22T12:51:14;4.22;;;3.28;;
64959;SDS011;51487;52.266;10.542;2023-07-22T12:53:40;5.43;;;3.80;;
64959;SDS011;51487;52.266;10.542;2023-07-22T12:56:06;5.43;;;3.30;;
64959;SDS011;51487;52.266;10.542;2023-07-22T12:58:31;5.93;;;2.90;;
64959;SDS011;51487;52.266;10.542;2023-07-22T13:00:58;5.18;;;3.47;;
64959;SDS011;51487;52.266;10.542;2023-07-22T13:03:24;5.15;;;3.35;;
64959;SDS011;51487;52.266;10.542;2023-07-22T13:05:50;4.53;;;3.40;;
64959;SDS011;51487;52.266;10.542;2023-07-22T13:08:15;3.60;;;3.10;;
64959;SDS011;51487;52.266;10.542;2023-07-22T13:10:41;5.10;;;3.50;;
64959;SDS011;51487;52.266;10.542;2023-07-22T13:13:09;4.55;;;3.50;;
64959;SDS011;51487;52.266;10.542;2023-07-22T13:15:36;4.85;;;3.25;;
64959;SDS011;51487;52.266;10.542;2023-07-22T13:18:01;4.63;;;3.30;;
64959;SDS011;51487;52.266;10.542;2023-07-22T13:20:28;4.43;;;3.15;;
64959;SDS011;51487;52.266;10.542;2023-07-22T13:22:55;3.95;;;3.33;;
64959;SDS011;51487;52.266;10.542;2023-07-22T13:25:21;6.30;;;3.63;;
64959;SDS011;51487;52.266;10.542;2023-07-22T13:27:47;4.95;;;3.75;;
64959;SDS011;51487;52.266;10.542;2023-07-22T13:30:12;6.03;;;4.00;;
64959;SDS011;51487;52.266;10.542;2023-07-22T13:32:38;7.30;;;4.25;;
64959;SDS011;51487;52.266;10.542;2023-07-22T13:35:05;6.55;;;4.65;;
64959;SDS011;51487;52.266;10.542;2023-07-22T13:37:31;8.50;;;4.70;;
64959;SDS011;51487;52.266;10.542;2023-07-22T13:39:57;6.80;;;4.50;;
64959;SDS011;51487;52.266;10.542;2023-07-22T13:42:22;8.35;;;4.93;;
64959;SDS011;51487;52.266;10.542;2023-07-22T13:44:49;8.90;;;4.47;;
64959;SDS011;51487;52.266;10.542;2023-07-22T13:47:15;6.45;;;4.97;;
64959;SDS011;51487;52.266;10.542;2023-07-22T13:49:40;5.90;;;4.30;;
64959;SDS011;51487;52.266;10.542;2023-07-22T13:52:06;6.53;;;4.30;;
64959;SDS011;51487;52.266;10.542;2023-07-22T13:54:32;5.45;;;4.13;;
64959;SDS011;51487;52.266;10.542;2023-07-22T13:56:57;8.55;;;4.70;;
64959;SDS011;51487;52.266;10.542;2023-07-22T13:59:23;5.15;;;3.83;;
64959;SDS011;51487;52.266;10.542;2023-07-22T14:01:48;6.25;;;4.43;;
64959;SDS011;51487;52.266;10.542;2023-07-22T14:04:14;5.55;;;4.35;;
64959;SDS011;51487;52.266;10.542;2023-07-22T14:06:40;6.25;;;4.18;;
64959;SDS011;51487;52.266;10.542;2023-07-22T14:09:06;5.90;;;4.63;;
64959;SDS011;51487;52.266;10.542;2023-07-22T14:11:31;7.32;;;4.35;;
64959;SDS011;51487;52.266;10.542;2023-07-22T14:13:57;5.30;;;4.28;;
64959;SDS011;51487;52.266;10.542;2023-07-22T14:16:23;8.70;;;5.03;;
64959;SDS011;51487;52.266;10.542;2023-07-22T14:18:48;6.78;;;4.40;;
64959;SDS011;51487;52.266;10.542;2023-07-22T14:21:14;8.13;;;5.05;;
64959;SDS011;51487;52.266;10.542;2023-07-22T14:23:40;8.40;;;4.93;;
64959;SDS011;51487;52.266;10.542;2023-07-22T14:26:05;6.13;;;4.70;;
64959;SDS011;51487;52.266;10.542;2023-07-22T14:28:32;6.30;;;4.38;;
64959;SDS011;51487;52.266;10.542;2023-07-22T14:30:57;6.32;;;4.20;;
64959;SDS011;51487;52.266;10.542;2023-07-22T14:33:23;5.20;;;4.60;;
64959;SDS011;51487;52.266;10.542;2023-07-22T14:35:49;5.43;;;4.22;;
64959;SDS011;51487;52.266;10.542;2023-07-22T14:38:15;8.48;;;4.88;;
64959;SDS011;51487;52.266;10.542;2023-07-22T14:40:40;7.38;;;4.90;;
64959;SDS011;51487;52.266;10.542;2023-07-22T14:43:06;5.68;;;4.00;;
64959;SDS011;51487;52.266;10.542;2023-07-22T14:45:31;9.02;;;4.93;;
64959;SDS011;51487;52.266;10.542;2023-07-22T14:47:57;7.15;;;4.60;;
64959;SDS011;51487;52.266;10.542;2023-07-22T14:50:23;5.72;;;4.32;;
64959;SDS011;51487;52.266;10.542;2023-07-22T14:52:50;6.20;;;4.05;;
64959;SDS011;51487;52.266;10.542;2023-07-22T14:55:15;5.50;;;4.22;;
64959;SDS011;51487;52.266;10.542;2023-07-22T14:57:41;8.40;;;4.20;;
64959;SDS011;51487;52.266;10.542;2023-07-22T15:00:07;5.70;;;4.30;;
64959;SDS011;51487;52.266;10.542;2023-07-22T15:02:33;6.72;;;4.15;;
64959;SDS011;51487;52.266;10.542;2023-07-22T15:04:59;5.45;;;4.20;;
64959;SDS011;51487;52.266;10.542;2023-07-22T15:07:24;4.65;;;3.90;;